sensor_id;sensor_type;location;lat;lon;timestamp;P1;durP1;ratioP1;P2;durP2;ratioP2
57842;SDS011;43673;51.058;3.734;2023-06-19T00:00:38;9.35;;;6.00;;
57842;SDS011;43673;51.058;3.734;2023-06-19T00:03:04;7.40;;;5.03;;
57842;SDS011;43673;51.058;3.734;2023-06-19T00:05:30;8.73;;;5.65;;
57842;SDS011;43673;51.058;3.734;2023-06-19T00:07:56;6.85;;;5.18;;
57842;SDS011;43673;51.058;3.734;2023-06-19T00:10:21;7.40;;;5.63;;
57842;SDS011;43673;51.058;3.734;2023-06-19T00:12:47;8.43;;;5.97;;
57842;SDS011;43673;51.058;3.734;2023-06-19T00:15:13;5.20;;;4.68;;
57842;SDS011;43673;51.058;3.734;2023-06-19T00:17:39;6.78;;;5.22;;
57842;SDS011;43673;51.058;3.734;2023-06-19T00:20:05;7.22;;;4.70;;
57842;SDS011;43673;51.058;3.734;2023-06-19T00:22:31;8.00;;;5.18;;
57842;SDS011;43673;51.058;3.734;2023-06-19T00:24:57;5.38;;;4.15;;
57842;SDS011;43673;51.058;3.734;2023-06-19T00:27:23;8.80;;;5.05;;
57842;SDS011;43673;51.058;3.734;2023-06-19T00:29:51;5.53;;;4.50;;
57842;SDS011;43673;51.058;3.734;2023-06-19T00:32:17;6.75;;;4.55;;
57842;SDS011;43673;51.058;3.734;2023-06-19T00:34:42;9.43;;;5.05;;
57842;SDS011;43673;51.058;3.734;2023-06-19T00:37:11;6.50;;;4.55;;
57842;SDS011;43673;51.058;3.734;2023-06-19T00:39:38;6.35;;;4.65;;
57842;SDS011;43673;51.058;3.734;2023-06-19T00:42:05;7.10;;;4.55;;
57842;SDS011;43673;51.058;3.734;2023-06-19T00:44:30;7.82;;;5.80;;
57842;SDS011;43673;51.058;3.734;2023-06-19T00:46:57;8.07;;;4.90;;
57842;SDS011;43673;51.058;3.734;2023-06-19T00:49:24;8.35;;;4.78;;
57842;SDS011;43673;51.058;3.734;2023-06-19T00:51:51;7.50;;;4.85;;
57842;SDS011;43673;51.058;3.734;2023-06-19T00:54:18;7.00;;;5.15;;
57842;SDS011;43673;51.058;3.734;2023-06-19T00:56:46;6.82;;;4.60;;
57842;SDS011;43673;51.058;3.734;2023-06-19T00:59:17;6.40;;;5.20;;
57842;SDS011;43673;51.058;3.734;2023-06-19T01:01:50;7.60;;;5.40;;
57842;SDS011;43673;51.058;3.734;2023-06-19T01:04:16;5.53;;;4.65;;
57842;SDS011;43673;51.058;3.734;2023-06-19T01:06:55;4.85;;;4.15;;
57842;SDS011;43673;51.058;3.734;2023-06-19T01:09:26;5.05;;;4.18;;
57842;SDS011;43673;51.058;3.734;2023-06-19T01:12:01;7.85;;;4.38;;
57842;SDS011;43673;51.058;3.734;2023-06-19T01:14:35;6.03;;;3.95;;
57842;SDS011;43673;51.058;3.734;2023-06-19T01:17:21;5.78;;;4.65;;
57842;SDS011;43673;51.058;3.734;2023-06-19T01:19:48;6.65;;;4.80;;
57842;SDS011;43673;51.058;3.734;2023-06-19T01:22:23;4.72;;;4.20;;
57842;SDS011;43673;51.058;3.734;2023-06-19T01:24:56;5.88;;;4.72;;
57842;SDS011;43673;51.058;3.734;2023-06-19T01:27:22;9.48;;;5.95;;
57842;SDS011;43673;51.058;3.734;2023-06-19T01:29:50;5.38;;;4.72;;
57842;SDS011;43673;51.058;3.734;2023-06-19T01:32:20;5.88;;;5.15;;
57842;SDS011;43673;51.058;3.734;2023-06-19T01:37:27;6.70;;;4.90;;
57842;SDS011;43673;51.058;3.734;2023-06-19T01:40:02;7.53;;;5.90;;
57842;SDS011;43673;51.058;3.734;2023-06-19T01:42:37;9.07;;;5.20;;
57842;SDS011;43673;51.058;3.734;2023-06-19T01:45:05;8.85;;;7.03;;
57842;SDS011;43673;51.058;3.734;2023-06-19T01:47:31;8.02;;;7.03;;
57842;SDS011;43673;51.058;3.734;2023-06-19T01:49:57;12.85;;;8.52;;
57842;SDS011;43673;51.058;3.734;2023-06-19T01:52:26;10.57;;;9.48;;
57842;SDS011;43673;51.058;3.734;2023-06-19T01:54:51;11.57;;;8.82;;
57842;SDS011;43673;51.058;3.734;2023-06-19T01:57:20;10.18;;;8.27;;
57842;SDS011;43673;51.058;3.734;2023-06-19T01:59:46;8.50;;;7.63;;
57842;SDS011;43673;51.058;3.734;2023-06-19T02:02:11;10.80;;;7.00;;
57842;SDS011;43673;51.058;3.734;2023-06-19T02:04:37;6.75;;;5.93;;
57842;SDS011;43673;51.058;3.734;2023-06-19T02:07:03;8.98;;;5.25;;
57842;SDS011;43673;51.058;3.734;2023-06-19T02:09:32;6.43;;;5.55;;
57842;SDS011;43673;51.058;3.734;2023-06-19T02:11:58;4.65;;;4.07;;
57842;SDS011;43673;51.058;3.734;2023-06-19T02:14:30;6.63;;;4.45;;
57842;SDS011;43673;51.058;3.734;2023-06-19T02:16:58;4.38;;;3.55;;
57842;SDS011;43673;51.058;3.734;2023-06-19T02:19:24;5.53;;;3.80;;
57842;SDS011;43673;51.058;3.734;2023-06-19T02:21:50;4.68;;;3.45;;
57842;SDS011;43673;51.058;3.734;2023-06-19T02:24:16;3.58;;;3.28;;
57842;SDS011;43673;51.058;3.734;2023-06-19T02:26:41;5.20;;;3.95;;
57842;SDS011;43673;51.058;3.734;2023-06-19T02:29:10;4.82;;;3.97;;
57842;SDS011;43673;51.058;3.734;2023-06-19T02:31:39;4.82;;;3.20;;
57842;SDS011;43673;51.058;3.734;2023-06-19T02:34:05;6.22;;;4.03;;
57842;SDS011;43673;51.058;3.734;2023-06-19T02:36:31;3.83;;;3.50;;
57842;SDS011;43673;51.058;3.734;2023-06-19T02:39:00;4.35;;;3.95;;
57842;SDS011;43673;51.058;3.734;2023-06-19T02:41:26;4.45;;;4.03;;
57842;SDS011;43673;51.058;3.734;2023-06-19T02:43:52;6.63;;;4.38;;
57842;SDS011;43673;51.058;3.734;2023-06-19T02:46:18;5.22;;;4.20;;
57842;SDS011;43673;51.058;3.734;2023-06-19T02:48:43;6.22;;;4.78;;
57842;SDS011;43673;51.058;3.734;2023-06-19T02:51:09;4.57;;;3.85;;
57842;SDS011;43673;51.058;3.734;2023-06-19T02:53:34;9.27;;;4.85;;
57842;SDS011;43673;51.058;3.734;2023-06-19T02:56:00;5.43;;;4.85;;
57842;SDS011;43673;51.058;3.734;2023-06-19T02:58:26;7.50;;;5.85;;
57842;SDS011;43673;51.058;3.734;2023-06-19T03:00:53;11.32;;;7.13;;
57842;SDS011;43673;51.058;3.734;2023-06-19T03:03:19;7.28;;;6.53;;
57842;SDS011;43673;51.058;3.734;2023-06-19T03:05:44;11.43;;;6.78;;
57842;SDS011;43673;51.058;3.734;2023-06-19T03:08:10;10.30;;;7.80;;
57842;SDS011;43673;51.058;3.734;2023-06-19T03:10:36;9.60;;;7.63;;
57842;SDS011;43673;51.058;3.734;2023-06-19T03:13:01;12.10;;;9.57;;
57842;SDS011;43673;51.058;3.734;2023-06-19T03:15:27;10.85;;;8.15;;
57842;SDS011;43673;51.058;3.734;2023-06-19T03:17:53;12.90;;;10.32;;
57842;SDS011;43673;51.058;3.734;2023-06-19T03:20:19;13.13;;;10.20;;
57842;SDS011;43673;51.058;3.734;2023-06-19T03:22:45;14.38;;;10.32;;
57842;SDS011;43673;51.058;3.734;2023-06-19T03:25:11;12.75;;;10.43;;
57842;SDS011;43673;51.058;3.734;2023-06-19T03:27:37;12.30;;;10.35;;
57842;SDS011;43673;51.058;3.734;2023-06-19T03:30:03;11.63;;;9.75;;
57842;SDS011;43673;51.058;3.734;2023-06-19T03:32:33;13.50;;;10.88;;
57842;SDS011;43673;51.058;3.734;2023-06-19T03:34:59;12.38;;;10.40;;
57842;SDS011;43673;51.058;3.734;2023-06-19T03:37:25;15.50;;;11.63;;
57842;SDS011;43673;51.058;3.734;2023-06-19T03:39:50;14.05;;;10.93;;
57842;SDS011;43673;51.058;3.734;2023-06-19T03:42:16;17.75;;;11.52;;
57842;SDS011;43673;51.058;3.734;2023-06-19T03:44:42;18.65;;;11.82;;
57842;SDS011;43673;51.058;3.734;2023-06-19T03:47:07;18.08;;;12.02;;
57842;SDS011;43673;51.058;3.734;2023-06-19T03:49:33;20.35;;;12.27;;
57842;SDS011;43673;51.058;3.734;2023-06-19T03:51:59;17.95;;;13.48;;
57842;SDS011;43673;51.058;3.734;2023-06-19T03:54:24;16.42;;;12.45;;
57842;SDS011;43673;51.058;3.734;2023-06-19T03:56:51;16.70;;;12.85;;
57842;SDS011;43673;51.058;3.734;2023-06-19T03:59:17;17.23;;;12.82;;
57842;SDS011;43673;51.058;3.734;2023-06-19T04:01:43;17.15;;;13.63;;
57842;SDS011;43673;51.058;3.734;2023-06-19T04:04:08;16.90;;;12.57;;
57842;SDS011;43673;51.058;3.734;2023-06-19T04:06:34;18.42;;;13.40;;
57842;SDS011;43673;51.058;3.734;2023-06-19T04:09:00;18.88;;;13.23;;
57842;SDS011;43673;51.058;3.734;2023-06-19T04:11:25;16.13;;;13.18;;
57842;SDS011;43673;51.058;3.734;2023-06-19T04:13:51;19.27;;;13.98;;
57842;SDS011;43673;51.058;3.734;2023-06-19T04:16:17;18.65;;;13.85;;
57842;SDS011;43673;51.058;3.734;2023-06-19T04:18:42;19.85;;;13.80;;
57842;SDS011;43673;51.058;3.734;2023-06-19T04:21:08;17.92;;;14.15;;
57842;SDS011;43673;51.058;3.734;2023-06-19T04:23:33;23.38;;;16.08;;
57842;SDS011;43673;51.058;3.734;2023-06-19T04:25:59;18.85;;;14.52;;
57842;SDS011;43673;51.058;3.734;2023-06-19T04:28:25;24.58;;;16.63;;
57842;SDS011;43673;51.058;3.734;2023-06-19T04:30:51;22.73;;;14.63;;
57842;SDS011;43673;51.058;3.734;2023-06-19T04:33:24;24.35;;;17.17;;
57842;SDS011;43673;51.058;3.734;2023-06-19T04:35:53;26.27;;;19.48;;
57842;SDS011;43673;51.058;3.734;2023-06-19T04:38:19;28.13;;;21.52;;
57842;SDS011;43673;51.058;3.734;2023-06-19T04:40:48;30.75;;;21.25;;
57842;SDS011;43673;51.058;3.734;2023-06-19T04:43:15;31.25;;;21.52;;
57842;SDS011;43673;51.058;3.734;2023-06-19T04:45:40;29.33;;;19.83;;
57842;SDS011;43673;51.058;3.734;2023-06-19T04:48:07;29.38;;;19.20;;
57842;SDS011;43673;51.058;3.734;2023-06-19T04:50:33;29.00;;;18.23;;
57842;SDS011;43673;51.058;3.734;2023-06-19T04:52:58;30.90;;;19.58;;
57842;SDS011;43673;51.058;3.734;2023-06-19T04:55:24;30.15;;;22.83;;
57842;SDS011;43673;51.058;3.734;2023-06-19T04:57:50;29.33;;;21.20;;
57842;SDS011;43673;51.058;3.734;2023-06-19T05:00:16;30.58;;;18.73;;
57842;SDS011;43673;51.058;3.734;2023-06-19T05:02:44;29.60;;;20.73;;
57842;SDS011;43673;51.058;3.734;2023-06-19T05:05:12;26.15;;;18.23;;
57842;SDS011;43673;51.058;3.734;2023-06-19T05:07:39;29.50;;;21.25;;
57842;SDS011;43673;51.058;3.734;2023-06-19T05:10:05;26.08;;;19.65;;
57842;SDS011;43673;51.058;3.734;2023-06-19T05:12:31;30.25;;;20.42;;
57842;SDS011;43673;51.058;3.734;2023-06-19T05:14:57;24.17;;;17.75;;
57842;SDS011;43673;51.058;3.734;2023-06-19T05:17:22;25.15;;;19.55;;
57842;SDS011;43673;51.058;3.734;2023-06-19T05:19:48;31.77;;;20.85;;
57842;SDS011;43673;51.058;3.734;2023-06-19T05:22:14;25.33;;;18.42;;
57842;SDS011;43673;51.058;3.734;2023-06-19T05:24:44;24.05;;;18.63;;
57842;SDS011;43673;51.058;3.734;2023-06-19T05:27:10;28.00;;;19.42;;
57842;SDS011;43673;51.058;3.734;2023-06-19T05:29:35;26.08;;;18.92;;
57842;SDS011;43673;51.058;3.734;2023-06-19T05:32:01;33.03;;;20.45;;
57842;SDS011;43673;51.058;3.734;2023-06-19T05:34:27;24.00;;;17.75;;
57842;SDS011;43673;51.058;3.734;2023-06-19T05:36:53;23.38;;;18.88;;
57842;SDS011;43673;51.058;3.734;2023-06-19T05:39:18;26.42;;;17.98;;
57842;SDS011;43673;51.058;3.734;2023-06-19T05:41:44;22.83;;;16.65;;
57842;SDS011;43673;51.058;3.734;2023-06-19T05:44:13;28.67;;;18.63;;
57842;SDS011;43673;51.058;3.734;2023-06-19T05:46:43;23.33;;;18.02;;
57842;SDS011;43673;51.058;3.734;2023-06-19T05:49:09;26.42;;;19.92;;
57842;SDS011;43673;51.058;3.734;2023-06-19T05:51:35;25.52;;;19.33;;
57842;SDS011;43673;51.058;3.734;2023-06-19T05:54:01;24.67;;;18.55;;
57842;SDS011;43673;51.058;3.734;2023-06-19T05:56:31;22.30;;;17.33;;
57842;SDS011;43673;51.058;3.734;2023-06-19T05:58:58;26.00;;;19.08;;
57842;SDS011;43673;51.058;3.734;2023-06-19T06:01:25;21.40;;;17.70;;
57842;SDS011;43673;51.058;3.734;2023-06-19T06:03:52;20.88;;;16.98;;
57842;SDS011;43673;51.058;3.734;2023-06-19T06:06:19;27.27;;;17.10;;
57842;SDS011;43673;51.058;3.734;2023-06-19T06:08:44;22.60;;;16.35;;
57842;SDS011;43673;51.058;3.734;2023-06-19T06:11:10;23.55;;;17.48;;
57842;SDS011;43673;51.058;3.734;2023-06-19T06:13:36;25.92;;;17.52;;
57842;SDS011;43673;51.058;3.734;2023-06-19T06:16:01;21.58;;;16.58;;
57842;SDS011;43673;51.058;3.734;2023-06-19T06:18:27;24.50;;;17.20;;
57842;SDS011;43673;51.058;3.734;2023-06-19T06:20:56;20.63;;;17.10;;
57842;SDS011;43673;51.058;3.734;2023-06-19T06:23:24;25.70;;;16.63;;
57842;SDS011;43673;51.058;3.734;2023-06-19T06:25:49;24.30;;;17.60;;
57842;SDS011;43673;51.058;3.734;2023-06-19T06:28:15;26.98;;;19.40;;
57842;SDS011;43673;51.058;3.734;2023-06-19T06:30:42;27.75;;;18.05;;
57842;SDS011;43673;51.058;3.734;2023-06-19T06:33:08;21.48;;;17.60;;
57842;SDS011;43673;51.058;3.734;2023-06-19T06:35:34;23.38;;;18.08;;
57842;SDS011;43673;51.058;3.734;2023-06-19T06:38:01;23.70;;;18.45;;
57842;SDS011;43673;51.058;3.734;2023-06-19T06:40:29;21.75;;;16.35;;
57842;SDS011;43673;51.058;3.734;2023-06-19T06:42:55;24.10;;;19.02;;
57842;SDS011;43673;51.058;3.734;2023-06-19T06:45:21;31.13;;;20.88;;
57842;SDS011;43673;51.058;3.734;2023-06-19T06:47:47;27.83;;;18.30;;
57842;SDS011;43673;51.058;3.734;2023-06-19T06:50:12;25.48;;;19.27;;
57842;SDS011;43673;51.058;3.734;2023-06-19T06:52:38;29.83;;;19.40;;
57842;SDS011;43673;51.058;3.734;2023-06-19T06:55:04;28.17;;;19.40;;
57842;SDS011;43673;51.058;3.734;2023-06-19T06:57:30;29.42;;;20.50;;
57842;SDS011;43673;51.058;3.734;2023-06-19T06:59:55;22.40;;;18.23;;
57842;SDS011;43673;51.058;3.734;2023-06-19T07:02:21;26.83;;;19.63;;
57842;SDS011;43673;51.058;3.734;2023-06-19T07:04:47;26.65;;;18.58;;
57842;SDS011;43673;51.058;3.734;2023-06-19T07:07:13;23.30;;;18.33;;
57842;SDS011;43673;51.058;3.734;2023-06-19T07:09:38;21.83;;;16.85;;
57842;SDS011;43673;51.058;3.734;2023-06-19T07:12:04;22.55;;;15.75;;
57842;SDS011;43673;51.058;3.734;2023-06-19T07:14:32;19.63;;;16.15;;
57842;SDS011;43673;51.058;3.734;2023-06-19T07:16:57;22.20;;;15.63;;
57842;SDS011;43673;51.058;3.734;2023-06-19T07:19:23;21.38;;;17.30;;
57842;SDS011;43673;51.058;3.734;2023-06-19T07:21:52;22.48;;;15.98;;
57842;SDS011;43673;51.058;3.734;2023-06-19T07:24:18;21.17;;;15.75;;
57842;SDS011;43673;51.058;3.734;2023-06-19T07:26:45;25.08;;;19.77;;
57842;SDS011;43673;51.058;3.734;2023-06-19T07:29:11;21.77;;;18.23;;
57842;SDS011;43673;51.058;3.734;2023-06-19T07:31:37;25.50;;;19.60;;
57842;SDS011;43673;51.058;3.734;2023-06-19T07:34:03;25.52;;;18.80;;
57842;SDS011;43673;51.058;3.734;2023-06-19T07:36:29;28.35;;;19.05;;
57842;SDS011;43673;51.058;3.734;2023-06-19T07:38:54;26.52;;;21.30;;
57842;SDS011;43673;51.058;3.734;2023-06-19T07:41:20;35.90;;;23.65;;
57842;SDS011;43673;51.058;3.734;2023-06-19T07:43:46;27.75;;;23.02;;
57842;SDS011;43673;51.058;3.734;2023-06-19T07:46:12;29.08;;;23.05;;
57842;SDS011;43673;51.058;3.734;2023-06-19T07:48:41;29.38;;;23.35;;
57842;SDS011;43673;51.058;3.734;2023-06-19T07:51:06;26.15;;;22.38;;
57842;SDS011;43673;51.058;3.734;2023-06-19T07:53:32;23.88;;;19.77;;
57842;SDS011;43673;51.058;3.734;2023-06-19T07:55:58;22.00;;;18.05;;
57842;SDS011;43673;51.058;3.734;2023-06-19T07:58:23;24.58;;;19.33;;
57842;SDS011;43673;51.058;3.734;2023-06-19T08:00:49;23.35;;;17.35;;
57842;SDS011;43673;51.058;3.734;2023-06-19T08:03:15;21.00;;;17.73;;
57842;SDS011;43673;51.058;3.734;2023-06-19T08:05:40;22.90;;;19.70;;
57842;SDS011;43673;51.058;3.734;2023-06-19T08:08:06;22.45;;;18.20;;
57842;SDS011;43673;51.058;3.734;2023-06-19T08:10:32;21.88;;;17.27;;
57842;SDS011;43673;51.058;3.734;2023-06-19T08:12:57;23.65;;;18.05;;
57842;SDS011;43673;51.058;3.734;2023-06-19T08:15:23;22.10;;;17.77;;
57842;SDS011;43673;51.058;3.734;2023-06-19T08:17:49;21.23;;;17.60;;
57842;SDS011;43673;51.058;3.734;2023-06-19T08:20:15;23.52;;;17.25;;
57842;SDS011;43673;51.058;3.734;2023-06-19T08:22:40;26.55;;;17.83;;
57842;SDS011;43673;51.058;3.734;2023-06-19T08:25:06;23.17;;;18.25;;
57842;SDS011;43673;51.058;3.734;2023-06-19T08:27:32;21.85;;;17.27;;
57842;SDS011;43673;51.058;3.734;2023-06-19T08:29:58;23.88;;;17.25;;
57842;SDS011;43673;51.058;3.734;2023-06-19T08:32:23;20.17;;;15.52;;
57842;SDS011;43673;51.058;3.734;2023-06-19T08:34:53;20.75;;;17.45;;
57842;SDS011;43673;51.058;3.734;2023-06-19T08:37:18;21.90;;;15.85;;
57842;SDS011;43673;51.058;3.734;2023-06-19T08:39:44;19.80;;;15.40;;
57842;SDS011;43673;51.058;3.734;2023-06-19T08:42:09;14.95;;;12.10;;
57842;SDS011;43673;51.058;3.734;2023-06-19T08:44:35;18.25;;;14.20;;
57842;SDS011;43673;51.058;3.734;2023-06-19T08:47:05;18.77;;;13.35;;
57842;SDS011;43673;51.058;3.734;2023-06-19T08:49:33;16.77;;;13.20;;
57842;SDS011;43673;51.058;3.734;2023-06-19T08:51:59;16.35;;;14.38;;
57842;SDS011;43673;51.058;3.734;2023-06-19T08:54:26;17.70;;;13.13;;
57842;SDS011;43673;51.058;3.734;2023-06-19T08:56:51;15.85;;;12.50;;
57842;SDS011;43673;51.058;3.734;2023-06-19T08:59:19;14.55;;;13.02;;
57842;SDS011;43673;51.058;3.734;2023-06-19T09:01:49;15.35;;;12.02;;
57842;SDS011;43673;51.058;3.734;2023-06-19T09:04:27;15.25;;;12.15;;
57842;SDS011;43673;51.058;3.734;2023-06-19T09:06:58;14.13;;;10.48;;
57842;SDS011;43673;51.058;3.734;2023-06-19T09:09:25;15.18;;;11.70;;
57842;SDS011;43673;51.058;3.734;2023-06-19T09:14:45;16.80;;;10.52;;
57842;SDS011;43673;51.058;3.734;2023-06-19T09:17:13;14.73;;;10.07;;
57842;SDS011;43673;51.058;3.734;2023-06-19T09:22:15;12.18;;;10.98;;
57842;SDS011;43673;51.058;3.734;2023-06-19T09:24:45;18.40;;;12.73;;
57842;SDS011;43673;51.058;3.734;2023-06-19T09:27:13;14.60;;;12.27;;
57842;SDS011;43673;51.058;3.734;2023-06-19T09:29:47;13.60;;;11.63;;
57842;SDS011;43673;51.058;3.734;2023-06-19T09:32:18;14.02;;;10.75;;
57842;SDS011;43673;51.058;3.734;2023-06-19T09:34:48;15.52;;;11.63;;
57842;SDS011;43673;51.058;3.734;2023-06-19T09:37:19;15.18;;;11.18;;
57842;SDS011;43673;51.058;3.734;2023-06-19T09:39:53;12.63;;;10.55;;
57842;SDS011;43673;51.058;3.734;2023-06-19T09:42:24;15.40;;;12.18;;
57842;SDS011;43673;51.058;3.734;2023-06-19T09:45:02;15.35;;;10.75;;
57842;SDS011;43673;51.058;3.734;2023-06-19T09:47:31;12.70;;;10.52;;
57842;SDS011;43673;51.058;3.734;2023-06-19T09:49:59;14.32;;;10.63;;
57842;SDS011;43673;51.058;3.734;2023-06-19T09:52:27;15.27;;;10.25;;
57842;SDS011;43673;51.058;3.734;2023-06-19T09:54:54;15.73;;;9.23;;
57842;SDS011;43673;51.058;3.734;2023-06-19T09:57:20;16.23;;;9.80;;
57842;SDS011;43673;51.058;3.734;2023-06-19T09:59:47;13.18;;;11.27;;
57842;SDS011;43673;51.058;3.734;2023-06-19T10:02:16;12.85;;;10.23;;
57842;SDS011;43673;51.058;3.734;2023-06-19T10:04:46;12.05;;;9.88;;
57842;SDS011;43673;51.058;3.734;2023-06-19T10:07:16;13.73;;;9.98;;
57842;SDS011;43673;51.058;3.734;2023-06-19T10:10:03;10.82;;;9.68;;
57842;SDS011;43673;51.058;3.734;2023-06-19T10:12:38;11.02;;;9.52;;
57842;SDS011;43673;51.058;3.734;2023-06-19T10:17:44;10.32;;;9.20;;
57842;SDS011;43673;51.058;3.734;2023-06-19T10:20:21;11.20;;;9.70;;
57842;SDS011;43673;51.058;3.734;2023-06-19T10:22:55;10.13;;;8.63;;
57842;SDS011;43673;51.058;3.734;2023-06-19T10:25:33;12.75;;;8.23;;
57842;SDS011;43673;51.058;3.734;2023-06-19T10:28:00;10.75;;;9.15;;
57842;SDS011;43673;51.058;3.734;2023-06-19T10:30:27;10.02;;;9.02;;
57842;SDS011;43673;51.058;3.734;2023-06-19T10:32:54;10.43;;;9.00;;
57842;SDS011;43673;51.058;3.734;2023-06-19T10:35:20;10.25;;;8.88;;
57842;SDS011;43673;51.058;3.734;2023-06-19T10:37:47;11.07;;;9.00;;
57842;SDS011;43673;51.058;3.734;2023-06-19T10:40:13;13.15;;;9.55;;
57842;SDS011;43673;51.058;3.734;2023-06-19T10:42:40;11.30;;;9.48;;
57842;SDS011;43673;51.058;3.734;2023-06-19T10:45:07;8.80;;;7.15;;
57842;SDS011;43673;51.058;3.734;2023-06-19T10:47:34;10.38;;;6.78;;
57842;SDS011;43673;51.058;3.734;2023-06-19T10:50:02;12.13;;;10.07;;
57842;SDS011;43673;51.058;3.734;2023-06-19T10:52:28;10.23;;;9.20;;
57842;SDS011;43673;51.058;3.734;2023-06-19T10:54:55;10.05;;;8.75;;
57842;SDS011;43673;51.058;3.734;2023-06-19T10:57:28;11.43;;;9.27;;
57842;SDS011;43673;51.058;3.734;2023-06-19T10:59:54;15.32;;;11.32;;
57842;SDS011;43673;51.058;3.734;2023-06-19T11:02:20;10.82;;;9.55;;
57842;SDS011;43673;51.058;3.734;2023-06-19T11:04:47;11.63;;;10.35;;
57842;SDS011;43673;51.058;3.734;2023-06-19T11:07:12;14.30;;;10.80;;
57842;SDS011;43673;51.058;3.734;2023-06-19T11:09:38;12.23;;;9.38;;
57842;SDS011;43673;51.058;3.734;2023-06-19T11:12:04;12.20;;;9.65;;
57842;SDS011;43673;51.058;3.734;2023-06-19T11:14:33;10.70;;;9.02;;
57842;SDS011;43673;51.058;3.734;2023-06-19T11:17:05;11.50;;;9.88;;
57842;SDS011;43673;51.058;3.734;2023-06-19T11:19:31;14.27;;;10.38;;
57842;SDS011;43673;51.058;3.734;2023-06-19T11:22:01;14.80;;;11.07;;
57842;SDS011;43673;51.058;3.734;2023-06-19T11:24:28;14.82;;;10.35;;
57842;SDS011;43673;51.058;3.734;2023-06-19T11:26:55;15.75;;;10.57;;
57842;SDS011;43673;51.058;3.734;2023-06-19T11:29:28;13.33;;;9.63;;
57842;SDS011;43673;51.058;3.734;2023-06-19T11:32:05;12.35;;;9.15;;
57842;SDS011;43673;51.058;3.734;2023-06-19T11:34:33;10.75;;;8.70;;
57842;SDS011;43673;51.058;3.734;2023-06-19T11:37:02;14.95;;;9.60;;
57842;SDS011;43673;51.058;3.734;2023-06-19T11:39:36;15.90;;;9.88;;
57842;SDS011;43673;51.058;3.734;2023-06-19T11:42:02;16.02;;;9.18;;
57842;SDS011;43673;51.058;3.734;2023-06-19T11:44:28;10.82;;;9.65;;
57842;SDS011;43673;51.058;3.734;2023-06-19T11:46:57;12.18;;;9.50;;
57842;SDS011;43673;51.058;3.734;2023-06-19T11:49:25;12.18;;;7.97;;
57842;SDS011;43673;51.058;3.734;2023-06-19T11:51:53;16.00;;;10.48;;
57842;SDS011;43673;51.058;3.734;2023-06-19T11:54:19;12.27;;;9.30;;
57842;SDS011;43673;51.058;3.734;2023-06-19T11:56:45;11.43;;;9.18;;
57842;SDS011;43673;51.058;3.734;2023-06-19T11:59:12;12.32;;;8.65;;
57842;SDS011;43673;51.058;3.734;2023-06-19T12:01:39;13.25;;;8.65;;
57842;SDS011;43673;51.058;3.734;2023-06-19T12:04:05;13.85;;;9.27;;
57842;SDS011;43673;51.058;3.734;2023-06-19T12:06:31;8.73;;;7.68;;
57842;SDS011;43673;51.058;3.734;2023-06-19T12:08:56;10.82;;;7.95;;
57842;SDS011;43673;51.058;3.734;2023-06-19T12:11:22;11.02;;;7.55;;
57842;SDS011;43673;51.058;3.734;2023-06-19T12:13:49;10.77;;;8.07;;
57842;SDS011;43673;51.058;3.734;2023-06-19T12:16:15;10.45;;;8.50;;
57842;SDS011;43673;51.058;3.734;2023-06-19T12:18:41;12.27;;;8.85;;
57842;SDS011;43673;51.058;3.734;2023-06-19T12:21:06;13.10;;;8.57;;
57842;SDS011;43673;51.058;3.734;2023-06-19T12:23:32;9.55;;;8.25;;
57842;SDS011;43673;51.058;3.734;2023-06-19T12:25:58;10.63;;;8.23;;
57842;SDS011;43673;51.058;3.734;2023-06-19T12:28:24;9.90;;;7.82;;
57842;SDS011;43673;51.058;3.734;2023-06-19T12:30:50;10.95;;;7.30;;
57842;SDS011;43673;51.058;3.734;2023-06-19T12:33:20;14.48;;;8.93;;
57842;SDS011;43673;51.058;3.734;2023-06-19T12:35:46;11.90;;;9.43;;
57842;SDS011;43673;51.058;3.734;2023-06-19T12:38:12;12.40;;;9.32;;
57842;SDS011;43673;51.058;3.734;2023-06-19T12:40:38;11.15;;;9.10;;
57842;SDS011;43673;51.058;3.734;2023-06-19T12:43:04;10.35;;;8.23;;
57842;SDS011;43673;51.058;3.734;2023-06-19T12:45:30;8.88;;;7.97;;
57842;SDS011;43673;51.058;3.734;2023-06-19T12:47:55;9.52;;;7.75;;
57842;SDS011;43673;51.058;3.734;2023-06-19T12:50:21;11.85;;;7.35;;
57842;SDS011;43673;51.058;3.734;2023-06-19T12:52:47;8.85;;;8.02;;
57842;SDS011;43673;51.058;3.734;2023-06-19T12:55:13;9.75;;;8.18;;
57842;SDS011;43673;51.058;3.734;2023-06-19T12:57:39;15.50;;;9.70;;
57842;SDS011;43673;51.058;3.734;2023-06-19T13:00:06;12.00;;;9.27;;
57842;SDS011;43673;51.058;3.734;2023-06-19T13:02:35;16.63;;;12.13;;
57842;SDS011;43673;51.058;3.734;2023-06-19T13:05:01;18.52;;;10.85;;
57842;SDS011;43673;51.058;3.734;2023-06-19T13:07:27;13.63;;;9.75;;
57842;SDS011;43673;51.058;3.734;2023-06-19T13:09:53;13.27;;;10.57;;
57842;SDS011;43673;51.058;3.734;2023-06-19T13:12:21;12.25;;;9.25;;
57842;SDS011;43673;51.058;3.734;2023-06-19T13:14:47;13.50;;;8.80;;
57842;SDS011;43673;51.058;3.734;2023-06-19T13:17:13;9.60;;;7.72;;
57842;SDS011;43673;51.058;3.734;2023-06-19T13:19:39;8.68;;;7.60;;
57842;SDS011;43673;51.058;3.734;2023-06-19T13:22:06;10.40;;;9.15;;
57842;SDS011;43673;51.058;3.734;2023-06-19T13:24:33;8.95;;;7.20;;
57842;SDS011;43673;51.058;3.734;2023-06-19T13:26:59;10.45;;;7.32;;
57842;SDS011;43673;51.058;3.734;2023-06-19T13:29:25;6.85;;;6.13;;
57842;SDS011;43673;51.058;3.734;2023-06-19T13:31:51;8.40;;;6.93;;
57842;SDS011;43673;51.058;3.734;2023-06-19T13:34:16;8.82;;;7.93;;
57842;SDS011;43673;51.058;3.734;2023-06-19T13:36:43;10.40;;;7.93;;
57842;SDS011;43673;51.058;3.734;2023-06-19T13:39:09;8.50;;;7.70;;
57842;SDS011;43673;51.058;3.734;2023-06-19T13:41:35;12.07;;;8.10;;
57842;SDS011;43673;51.058;3.734;2023-06-19T13:44:01;10.40;;;7.20;;
57842;SDS011;43673;51.058;3.734;2023-06-19T13:46:28;10.80;;;7.18;;
57842;SDS011;43673;51.058;3.734;2023-06-19T13:48:55;8.80;;;7.90;;
57842;SDS011;43673;51.058;3.734;2023-06-19T13:51:21;9.13;;;7.47;;
57842;SDS011;43673;51.058;3.734;2023-06-19T13:53:48;8.93;;;6.88;;
57842;SDS011;43673;51.058;3.734;2023-06-19T13:56:14;7.85;;;6.93;;
57842;SDS011;43673;51.058;3.734;2023-06-19T13:58:40;9.50;;;7.45;;
57842;SDS011;43673;51.058;3.734;2023-06-19T14:01:06;9.65;;;6.40;;
57842;SDS011;43673;51.058;3.734;2023-06-19T14:03:32;7.30;;;6.32;;
57842;SDS011;43673;51.058;3.734;2023-06-19T14:05:58;10.00;;;7.32;;
57842;SDS011;43673;51.058;3.734;2023-06-19T14:08:23;9.73;;;7.25;;
57842;SDS011;43673;51.058;3.734;2023-06-19T14:10:50;7.93;;;6.82;;
57842;SDS011;43673;51.058;3.734;2023-06-19T14:13:16;8.18;;;7.05;;
57842;SDS011;43673;51.058;3.734;2023-06-19T14:15:41;14.13;;;8.05;;
57842;SDS011;43673;51.058;3.734;2023-06-19T14:18:07;8.98;;;6.18;;
57842;SDS011;43673;51.058;3.734;2023-06-19T14:20:33;10.30;;;7.10;;
57842;SDS011;43673;51.058;3.734;2023-06-19T14:22:59;9.70;;;6.72;;
57842;SDS011;43673;51.058;3.734;2023-06-19T14:25:25;8.45;;;6.97;;
57842;SDS011;43673;51.058;3.734;2023-06-19T14:27:50;8.20;;;6.07;;
57842;SDS011;43673;51.058;3.734;2023-06-19T14:30:16;9.32;;;6.85;;
57842;SDS011;43673;51.058;3.734;2023-06-19T14:32:42;12.82;;;8.98;;
57842;SDS011;43673;51.058;3.734;2023-06-19T14:35:07;7.80;;;6.72;;
57842;SDS011;43673;51.058;3.734;2023-06-19T14:37:33;8.60;;;6.68;;
57842;SDS011;43673;51.058;3.734;2023-06-19T14:39:59;8.00;;;7.15;;